createdAt,value
2022-11-15T00:01:18.317Z,100912.95
2022-11-15T00:03:47.163Z,100911.03
2022-11-15T00:06:14.971Z,100903.88
2022-11-15T00:08:42.936Z,100901.19
2022-11-15T00:11:12.658Z,100897.67
2022-11-15T00:13:41.366Z,100892.65
2022-11-15T00:16:10.352Z,100887.27
2022-11-15T00:18:39.536Z,100882.54
2022-11-15T00:21:10.764Z,100880.49
2022-11-15T00:23:38.729Z,100881.73
2022-11-15T00:26:07.636Z,100885.34
2022-11-15T00:28:35.487Z,100875.77
2022-11-15T00:31:05.707Z,100869.73
2022-11-15T00:33:34.892Z,100870.30
2022-11-15T00:36:08.420Z,100867.07
2022-11-15T00:38:38.049Z,100865.48
2022-11-15T00:41:09.878Z,100862.26
2022-11-15T00:43:41.094Z,100853.30
2022-11-15T00:46:10.862Z,100850.06
2022-11-15T00:48:39.206Z,100846.63
2022-11-15T00:51:07.270Z,100841.87
2022-11-15T00:53:35.768Z,100838.14
2022-11-15T00:56:04.045Z,100832.71
2022-11-15T00:58:32.195Z,100836.88
2022-11-15T01:01:08.323Z,100853.03
2022-11-15T01:03:37.246Z,100846.86
2022-11-15T01:06:06.459Z,100841.43
2022-11-15T01:08:34.717Z,100845.48
2022-11-15T01:11:05.351Z,100836.10
2022-11-15T01:13:35.464Z,100836.42
2022-11-15T01:16:23.606Z,100833.59
2022-11-15T01:18:51.882Z,100830.30
2022-11-15T01:21:20.665Z,100827.55
2022-11-15T01:23:48.482Z,100824.31
2022-11-15T01:26:16.810Z,100819.28
2022-11-15T01:28:44.879Z,100819.53
2022-11-15T01:31:16.023Z,100814.12
2022-11-15T01:33:43.887Z,100812.12
2022-11-15T01:36:14.826Z,100811.33
2022-11-15T01:38:43.068Z,100806.91
2022-11-15T01:41:23.576Z,100798.98
2022-11-15T01:43:56.360Z,100796.30
2022-11-15T01:46:36.497Z,100800.35
2022-11-15T01:49:17.472Z,100798.79
2022-11-15T01:51:45.946Z,100797.80
2022-11-15T01:54:17.811Z,100795.02
2022-11-15T01:56:57.873Z,100790.89
2022-11-15T01:59:26.744Z,100786.95
2022-11-15T02:01:54.921Z,100782.55
2022-11-15T02:04:32.308Z,100783.52
2022-11-15T02:07:03.365Z,100774.74
2022-11-15T02:09:31.730Z,100778.25
2022-11-15T02:12:01.025Z,100767.73
2022-11-15T02:14:30.969Z,100757.46
2022-11-15T02:17:26.452Z,100757.69
2022-11-15T02:20:30.875Z,100756.34
2022-11-15T02:23:02.431Z,100755.63
2022-11-15T02:25:40.125Z,100751.42
2022-11-15T02:28:07.898Z,100742.75
2022-11-15T02:30:38.926Z,100738.95
2022-11-15T02:33:50.330Z,100734.09
2022-11-15T02:36:45.005Z,100734.90
2022-11-15T02:39:37.152Z,100728.66
2022-11-15T02:42:37.210Z,100720.55
2022-11-15T02:45:10.048Z,100727.31
2022-11-15T02:47:47.019Z,100724.09
2022-11-15T02:50:19.800Z,100722.57
2022-11-15T02:52:50.023Z,100723.42
2022-11-15T02:55:39.901Z,100720.08
2022-11-15T02:58:40.306Z,100715.98
2022-11-15T03:01:26.958Z,100716.60
2022-11-15T03:04:29.540Z,100711.57
2022-11-15T03:07:15.236Z,100704.59
2022-11-15T03:10:01.404Z,100705.35
2022-11-15T03:12:36.874Z,100704.66
2022-11-15T03:15:22.663Z,100698.40
2022-11-15T03:17:58.111Z,100690.58
2022-11-15T03:20:28.296Z,100692.69
2022-11-15T03:23:02.396Z,100689.51
2022-11-15T03:25:33.231Z,100689.27
2022-11-15T03:28:05.092Z,100686.91
2022-11-15T03:30:37.461Z,100686.12
2022-11-15T03:33:06.181Z,100681.04
2022-11-15T03:35:38.623Z,100677.86
2022-11-15T03:38:22.774Z,100678.64
2022-11-15T03:40:59.556Z,100677.11
2022-11-15T03:44:03.967Z,100673.77
2022-11-15T03:46:44.221Z,100666.77
2022-11-15T03:49:18.463Z,100662.83
2022-11-15T03:51:46.813Z,100663.54
2022-11-15T03:54:15.087Z,100657.65
2022-11-15T03:56:42.955Z,100657.50
2022-11-15T03:59:10.924Z,100650.35
2022-11-15T04:01:38.897Z,100648.02
2022-11-15T04:04:06.906Z,100650.27
2022-11-15T04:06:34.978Z,100647.52
2022-11-15T04:09:02.934Z,100640.70
2022-11-15T04:11:30.821Z,100635.40
2022-11-15T04:13:58.642Z,100633.67
2022-11-15T04:16:26.494Z,100640.40
2022-11-15T04:19:12.992Z,100633.45
2022-11-15T04:21:59.908Z,100633.96
2022-11-15T04:24:27.725Z,100644.34
2022-11-15T04:26:55.647Z,100648.25
2022-11-15T04:29:35.379Z,100643.49
2022-11-15T04:32:08.303Z,100637.48
2022-11-15T04:34:36.436Z,100634.14
2022-11-15T04:37:13.111Z,100631.45
2022-11-15T04:39:42.103Z,100631.87
2022-11-15T04:42:10.934Z,100630.53
2022-11-15T04:44:38.988Z,100624.95
2022-11-15T04:47:07.033Z,100627.52
2022-11-15T04:49:34.899Z,100627.24
2022-11-15T04:52:02.867Z,100621.86
2022-11-15T04:54:30.832Z,100624.52
2022-11-15T04:56:58.710Z,100617.95
2022-11-15T04:59:27.073Z,100618.58
2022-11-15T05:01:55.045Z,100615.55
2022-11-15T05:04:23.010Z,100611.80
2022-11-15T05:06:52.726Z,100612.26
2022-11-15T05:09:21.708Z,100609.38
2022-11-15T05:11:49.677Z,100611.58
2022-11-15T05:14:17.686Z,100611.45
2022-11-15T05:16:45.613Z,100613.15
2022-11-15T05:19:13.493Z,100608.66
2022-11-15T05:21:41.759Z,100608.92
2022-11-15T05:24:12.185Z,100605.25
2022-11-15T05:26:40.043Z,100604.86
2022-11-15T05:29:10.505Z,100600.38
2022-11-15T05:31:41.682Z,100602.08
2022-11-15T05:34:09.587Z,100597.39
2022-11-15T05:36:44.004Z,100594.13
2022-11-15T05:39:11.869Z,100595.34
2022-11-15T05:41:48.947Z,100587.38
2022-11-15T05:44:21.113Z,100583.38
2022-11-15T05:46:51.639Z,100584.32
2022-11-15T05:49:23.134Z,100588.11
2022-11-15T05:51:51.179Z,100591.70
2022-11-15T05:54:21.994Z,100596.15
2022-11-15T05:56:51.029Z,100599.16
2022-11-15T05:59:19.976Z,100600.23
2022-11-15T06:01:47.934Z,100595.21
2022-11-15T06:04:15.882Z,100594.48
2022-11-15T06:06:43.702Z,100592.87
2022-11-15T06:09:11.450Z,100590.06
2022-11-15T06:11:39.311Z,100592.66
2022-11-15T06:14:07.281Z,100592.63
2022-11-15T06:16:35.260Z,100596.73
2022-11-15T06:19:03.218Z,100597.34
2022-11-15T06:21:31.081Z,100597.33
2022-11-15T06:23:58.949Z,100596.95
2022-11-15T06:26:26.738Z,100602.11
2022-11-15T06:28:54.549Z,100607.33
2022-11-15T06:31:22.541Z,100603.45
2022-11-15T06:33:50.817Z,100599.96
2022-11-15T06:36:18.888Z,100604.44
2022-11-15T06:38:46.804Z,100607.10
2022-11-15T06:41:15.964Z,100605.14
2022-11-15T06:43:43.874Z,100603.67
2022-11-15T06:46:11.781Z,100603.15
2022-11-15T06:48:39.718Z,100604.26
2022-11-15T06:51:08.673Z,100597.05
2022-11-15T06:53:36.923Z,100602.34
2022-11-15T06:56:07.449Z,100604.10
2022-11-15T06:58:36.286Z,100599.82
2022-11-15T07:01:07.920Z,100598.14
2022-11-15T07:03:36.818Z,100599.88
2022-11-15T07:06:07.348Z,100601.27
2022-11-15T07:08:36.564Z,100601.84
2022-11-15T07:11:07.540Z,100600.24
2022-11-15T07:13:37.294Z,100600.20
2022-11-15T07:16:10.132Z,100599.19
2022-11-15T07:18:39.841Z,100596.62
2022-11-15T07:21:11.398Z,100596.21
2022-11-15T07:23:39.976Z,100602.02
2022-11-15T07:26:09.119Z,100600.77
2022-11-15T07:28:37.242Z,100599.65
2022-11-15T07:31:07.173Z,100605.66
2022-11-15T07:33:36.124Z,100606.30
2022-11-15T07:36:06.364Z,100605.67
2022-11-15T07:38:42.262Z,100597.81
2022-11-15T07:41:10.930Z,100591.61
2022-11-15T07:43:38.873Z,100590.21
2022-11-15T07:46:10.453Z,100588.56
2022-11-15T07:48:45.381Z,100585.86
2022-11-15T07:51:17.931Z,100581.23
2022-11-15T07:53:46.104Z,100579.63
2022-11-15T07:56:14.646Z,100578.14
2022-11-15T07:58:42.554Z,100575.84
2022-11-15T08:01:11.424Z,100572.02
2022-11-15T08:03:39.719Z,100569.41
2022-11-15T08:06:07.645Z,100566.94
2022-11-15T08:08:35.654Z,100570.33
2022-11-15T08:11:03.991Z,100565.77
2022-11-15T08:13:32.435Z,100569.45
2022-11-15T08:16:02.533Z,100568.02
2022-11-15T08:18:30.448Z,100560.98
2022-11-15T08:21:02.518Z,100551.91
2022-11-15T08:23:30.915Z,100551.45
2022-11-15T08:26:06.182Z,100545.10
2022-11-15T08:28:34.145Z,100540.89
2022-11-15T08:31:03.516Z,100536.21
2022-11-15T08:33:32.365Z,100548.66
2022-11-15T08:36:01.940Z,100547.35
2022-11-15T08:38:30.679Z,100544.38
2022-11-15T08:41:05.454Z,100543.38
2022-11-15T08:43:34.477Z,100541.52
2022-11-15T08:46:02.842Z,100539.59
2022-11-15T08:48:31.291Z,100532.75
2022-11-15T08:50:59.475Z,100532.65
2022-11-15T08:53:27.343Z,100533.40
2022-11-15T08:55:55.620Z,100527.52
2022-11-15T08:58:23.686Z,100528.63
2022-11-15T09:00:51.553Z,100528.64
2022-11-15T09:03:19.517Z,100522.05
2022-11-15T09:05:47.487Z,100520.41
2022-11-15T09:08:40.782Z,100517.14
2022-11-15T09:11:11.077Z,100518.58
2022-11-15T09:13:39.303Z,100516.94
2022-11-15T09:16:07.846Z,100516.48
2022-11-15T09:18:35.963Z,100517.39
2022-11-15T09:21:04.726Z,100519.31
2022-11-15T09:23:32.510Z,100513.59
2022-11-15T09:26:05.448Z,100515.65
2022-11-15T09:28:35.134Z,100507.98
2022-11-15T09:31:06.733Z,100505.32
2022-11-15T09:33:35.305Z,100501.77
2022-11-15T09:36:09.233Z,100501.52
2022-11-15T09:38:37.458Z,100501.08
2022-11-15T09:41:14.437Z,100500.45
2022-11-15T09:43:50.085Z,100498.75
2022-11-15T09:46:33.318Z,100498.40
2022-11-15T09:49:03.480Z,100493.51
2022-11-15T09:51:35.450Z,100488.45
2022-11-15T09:54:51.689Z,100482.48
2022-11-15T09:57:17.214Z,100477.64
2022-11-15T09:59:57.013Z,100474.14
2022-11-15T10:02:51.159Z,100471.35
2022-11-15T10:05:23.602Z,100465.15
2022-11-15T10:08:03.655Z,100457.92
2022-11-15T10:10:45.140Z,100458.16
2022-11-15T10:13:25.530Z,100454.27
2022-11-15T10:16:00.409Z,100451.92
2022-11-15T10:19:01.574Z,100449.38
2022-11-15T10:21:56.280Z,100446.37
2022-11-15T10:24:29.450Z,100444.08
2022-11-15T10:26:58.288Z,100445.30
2022-11-15T10:29:27.318Z,100440.43
2022-11-15T10:31:55.615Z,100440.31
2022-11-15T10:34:25.021Z,100436.27
2022-11-15T10:37:01.789Z,100435.77
2022-11-15T10:39:29.712Z,100440.52
2022-11-15T10:41:58.139Z,100440.17
2022-11-15T10:44:29.788Z,100431.98
2022-11-15T10:46:57.757Z,100433.77
2022-11-15T10:49:31.464Z,100436.52
2022-11-15T10:52:01.616Z,100429.40
2022-11-15T10:55:04.037Z,100423.69
2022-11-15T10:57:37.451Z,100418.02
2022-11-15T11:00:19.801Z,100417.02
2022-11-15T11:02:56.632Z,100420.25
2022-11-15T11:05:39.884Z,100419.73
2022-11-15T11:08:15.818Z,100418.61
2022-11-15T11:11:02.474Z,100417.82
2022-11-15T11:13:39.620Z,100409.27
2022-11-15T11:16:21.294Z,100406.44
2022-11-15T11:18:58.850Z,100405.79
2022-11-15T11:21:50.814Z,100398.95
2022-11-15T11:24:44.998Z,100392.73
2022-11-15T11:27:38.259Z,100390.36
2022-11-15T11:30:30.423Z,100390.30
2022-11-15T11:33:04.928Z,100387.52
2022-11-15T11:35:44.964Z,100378.73
2022-11-15T11:38:49.801Z,100374.85
2022-11-15T11:41:55.650Z,100366.54
2022-11-15T11:44:41.871Z,100370.41
2022-11-15T11:47:15.863Z,100369.02
2022-11-15T11:49:58.373Z,100366.02
2022-11-15T11:52:41.518Z,100367.55
2022-11-15T11:55:23.284Z,100365.98
2022-11-15T11:58:03.229Z,100361.23
2022-11-15T12:00:35.528Z,100354.13
2022-11-15T12:03:12.789Z,100344.80
2022-11-15T12:05:54.462Z,100343.11
2022-11-15T12:08:31.791Z,100348.53
2022-11-15T12:11:22.853Z,100354.27
2022-11-15T12:13:57.914Z,100351.64
2022-11-15T12:16:31.074Z,100351.08
2022-11-15T12:19:04.601Z,100344.93
2022-11-15T12:21:51.517Z,100346.42
2022-11-15T12:24:26.553Z,100352.16
2022-11-15T12:27:20.618Z,100350.40
2022-11-15T12:29:58.118Z,100336.12
2022-11-15T12:32:31.718Z,100330.83
2022-11-15T12:35:01.952Z,100333.04
2022-11-15T12:37:35.956Z,100334.77
2022-11-15T12:40:22.144Z,100331.90
2022-11-15T12:43:16.541Z,100331.25
2022-11-15T12:45:46.441Z,100330.43
2022-11-15T12:48:17.379Z,100337.70
2022-11-15T12:50:51.491Z,100329.15
2022-11-15T12:53:25.716Z,100323.53
2022-11-15T12:56:05.858Z,100324.41
2022-11-15T12:58:52.873Z,100317.83
2022-11-15T13:01:32.975Z,100314.79
2022-11-15T13:04:25.369Z,100313.41
2022-11-15T13:06:54.804Z,100316.27
2022-11-15T13:09:43.015Z,100314.23
2022-11-15T13:12:29.822Z,100304.94
2022-11-15T13:15:02.233Z,100299.02
2022-11-15T13:17:40.879Z,100300.37
2022-11-15T13:20:08.678Z,100291.38
2022-11-15T13:22:52.433Z,100286.42
2022-11-15T13:25:57.962Z,100283.69
2022-11-15T13:28:33.598Z,100286.23
2022-11-15T13:31:15.325Z,100284.39
2022-11-15T13:33:45.114Z,100281.05
2022-11-15T13:36:25.264Z,100277.00
2022-11-15T13:39:13.612Z,100278.55
2022-11-15T13:41:52.454Z,100277.05
2022-11-15T13:44:28.529Z,100275.19
2022-11-15T13:47:08.543Z,100275.70
2022-11-15T13:49:36.720Z,100279.23
2022-11-15T13:52:08.072Z,100279.70
2022-11-15T13:55:03.334Z,100277.27
2022-11-15T13:57:59.499Z,100277.11
2022-11-15T14:00:41.407Z,100280.23
2022-11-15T14:03:16.989Z,100278.27
2022-11-15T14:06:03.385Z,100274.52
2022-11-15T14:08:31.505Z,100267.79
2022-11-15T14:11:17.400Z,100268.16
2022-11-15T14:14:10.563Z,100264.89
2022-11-15T14:16:38.434Z,100263.65
2022-11-15T14:19:10.537Z,100253.53
2022-11-15T14:21:38.658Z,100255.23
2022-11-15T14:24:21.424Z,100262.86
2022-11-15T14:26:49.751Z,100258.38
2022-11-15T14:29:31.261Z,100255.61
2022-11-15T14:32:15.661Z,100260.52
2022-11-15T14:34:44.411Z,100261.35
2022-11-15T14:37:29.041Z,100263.69
2022-11-15T14:39:56.880Z,100260.90
2022-11-15T14:42:25.639Z,100261.64
2022-11-15T14:44:53.758Z,100262.23
2022-11-15T14:47:21.930Z,100261.67
2022-11-15T14:49:50.061Z,100263.29
2022-11-15T14:52:18.276Z,100256.16
2022-11-15T14:54:46.151Z,100256.91
2022-11-15T14:57:14.112Z,100254.48
2022-11-15T14:59:41.973Z,100253.84
2022-11-15T15:02:23.868Z,100255.20
2022-11-15T15:04:52.048Z,100251.77
2022-11-15T15:07:20.237Z,100256.67
2022-11-15T15:09:48.392Z,100257.19
2022-11-15T15:12:21.444Z,100248.95
2022-11-15T15:14:50.571Z,100250.11
2022-11-15T15:17:18.746Z,100249.09
2022-11-15T15:19:46.739Z,100248.25
2022-11-15T15:22:17.650Z,100248.71
2022-11-15T15:24:46.699Z,100251.91
2022-11-15T15:27:14.611Z,100245.64
2022-11-15T15:29:42.575Z,100244.27
2022-11-15T15:32:11.998Z,100243.80
2022-11-15T15:34:40.412Z,100239.27
2022-11-15T15:37:25.439Z,100233.21
2022-11-15T15:39:55.075Z,100233.98
2022-11-15T15:42:24.230Z,100237.10
2022-11-15T15:44:52.297Z,100235.81
2022-11-15T15:47:24.714Z,100235.42
2022-11-15T15:49:52.844Z,100236.79
2022-11-15T15:52:20.639Z,100229.71
2022-11-15T15:54:48.468Z,100223.85
2022-11-15T15:57:16.333Z,100219.17
2022-11-15T15:59:44.202Z,100225.81
2022-11-15T16:02:16.117Z,100225.28
2022-11-15T16:04:44.034Z,100223.90
2022-11-15T16:07:24.938Z,100225.40
2022-11-15T16:10:01.802Z,100221.44
2022-11-15T16:12:35.485Z,100216.54
2022-11-15T16:15:04.984Z,100210.79
2022-11-15T16:17:45.133Z,100207.50
2022-11-15T16:20:32.081Z,100212.52
2022-11-15T16:23:07.095Z,100207.77
2022-11-15T16:25:56.898Z,100207.64
2022-11-15T16:28:28.617Z,100207.82
2022-11-15T16:31:13.702Z,100214.06
2022-11-15T16:33:41.553Z,100218.15
2022-11-15T16:36:31.266Z,100218.16
2022-11-15T16:39:00.412Z,100219.45
2022-11-15T16:41:28.201Z,100219.41
2022-11-15T16:43:56.157Z,100218.22
2022-11-15T16:46:26.689Z,100218.75
2022-11-15T16:48:55.130Z,100221.31
2022-11-15T16:51:23.642Z,100222.34
2022-11-15T16:53:51.818Z,100216.96
2022-11-15T16:56:25.838Z,100216.47
2022-11-15T16:58:59.060Z,100214.58
2022-11-15T17:01:28.508Z,100217.80
2022-11-15T17:03:57.177Z,100221.11
2022-11-15T17:06:26.916Z,100213.27
2022-11-15T17:08:55.086Z,100211.55
2022-11-15T17:11:23.265Z,100212.68
2022-11-15T17:13:51.304Z,100212.52
2022-11-15T17:16:19.299Z,100211.91
2022-11-15T17:18:51.523Z,100210.15
2022-11-15T17:21:23.160Z,100209.66
2022-11-15T17:23:51.085Z,100212.33
2022-11-15T17:26:39.250Z,100212.08
2022-11-15T17:29:09.846Z,100213.33
2022-11-15T17:31:38.542Z,100215.48
2022-11-15T17:34:07.332Z,100214.09
2022-11-15T17:36:35.204Z,100214.29
2022-11-15T17:39:04.535Z,100211.60
2022-11-15T17:41:32.462Z,100207.73
2022-11-15T17:44:03.208Z,100200.16
2022-11-15T17:46:31.208Z,100194.95
2022-11-15T17:48:59.152Z,100192.55
2022-11-15T17:51:27.430Z,100189.10
2022-11-15T17:53:57.150Z,100189.73
2022-11-15T17:56:29.055Z,100186.52
2022-11-15T17:58:58.588Z,100182.78
2022-11-15T18:01:33.797Z,100186.58
2022-11-15T18:04:05.586Z,100186.58
2022-11-15T18:06:35.092Z,100191.23
2022-11-15T18:09:04.482Z,100196.30
2022-11-15T18:11:41.191Z,100201.16
2022-11-15T18:14:14.323Z,100198.23
2022-11-15T18:16:42.617Z,100195.45
2022-11-15T18:19:14.374Z,100192.09
2022-11-15T18:21:56.996Z,100190.41
2022-11-15T18:24:31.047Z,100193.19
2022-11-15T18:27:00.706Z,100187.86
2022-11-15T18:29:29.085Z,100184.03
2022-11-15T18:31:57.703Z,100182.63
2022-11-15T18:34:32.205Z,100186.00
2022-11-15T18:37:03.030Z,100185.82
2022-11-15T18:39:31.312Z,100187.61
2022-11-15T18:41:59.673Z,100187.44
2022-11-15T18:44:30.175Z,100181.29
2022-11-15T18:46:58.916Z,100185.48
2022-11-15T18:49:26.856Z,100190.23
2022-11-15T18:51:55.232Z,100188.84
2022-11-15T18:54:26.863Z,100186.77
2022-11-15T18:56:58.860Z,100188.69
2022-11-15T18:59:27.942Z,100188.45
2022-11-15T19:01:57.075Z,100186.02
2022-11-15T19:04:25.110Z,100185.11
2022-11-15T19:06:53.681Z,100180.42
2022-11-15T19:09:21.701Z,100177.44
2022-11-15T19:11:51.893Z,100173.40
2022-11-15T19:14:24.309Z,100176.98
2022-11-15T19:16:53.230Z,100181.25
2022-11-15T19:19:24.627Z,100182.25
2022-11-15T19:21:53.078Z,100183.55
2022-11-15T19:24:21.468Z,100177.80
2022-11-15T19:26:49.311Z,100177.15
2022-11-15T19:29:18.417Z,100175.47
2022-11-15T19:31:48.844Z,100178.03
2022-11-15T19:34:18.080Z,100173.82
2022-11-15T19:36:46.721Z,100167.89
2022-11-15T19:39:18.057Z,100154.23
2022-11-15T19:41:46.643Z,100156.46
2022-11-15T19:44:15.139Z,100157.98
2022-11-15T19:46:44.496Z,100165.24
2022-11-15T19:49:12.802Z,100166.52
2022-11-15T19:51:45.478Z,100163.18
2022-11-15T19:54:13.757Z,100166.15
2022-11-15T19:56:41.742Z,100166.50
2022-11-15T19:59:11.797Z,100165.05
2022-11-15T20:01:40.109Z,100160.85
2022-11-15T20:04:10.280Z,100159.19
2022-11-15T20:06:41.606Z,100154.17
2022-11-15T20:09:13.876Z,100149.64
2022-11-15T20:11:42.448Z,100148.98
2022-11-15T20:14:11.784Z,100149.33
2022-11-15T20:16:40.178Z,100148.48
2022-11-15T20:19:08.909Z,100150.39
2022-11-15T20:21:36.852Z,100149.86
2022-11-15T20:24:05.402Z,100146.27
2022-11-15T20:26:33.239Z,100151.00
2022-11-15T20:29:02.236Z,100153.72
2022-11-15T20:31:30.780Z,100151.85
2022-11-15T20:33:59.017Z,100149.48
2022-11-15T20:36:27.297Z,100147.48
2022-11-15T20:38:59.556Z,100145.50
2022-11-15T20:41:28.317Z,100149.38
2022-11-15T20:43:56.296Z,100150.46
2022-11-15T20:46:24.336Z,100150.14
2022-11-15T20:48:52.295Z,100148.44
2022-11-15T20:51:20.672Z,100145.23
2022-11-15T20:53:49.351Z,100145.23
2022-11-15T20:56:20.306Z,100145.58
2022-11-15T20:58:50.506Z,100141.17
2022-11-15T21:01:24.684Z,100134.76
2022-11-15T21:03:55.189Z,100135.94
2022-11-15T21:06:25.194Z,100135.09
2022-11-15T21:09:14.390Z,100137.13
2022-11-15T21:12:00.962Z,100143.58
2022-11-15T21:14:28.808Z,100142.89
2022-11-15T21:16:56.673Z,100142.16
2022-11-15T21:19:29.148Z,100137.73
2022-11-15T21:22:03.374Z,100132.80
2022-11-15T21:24:31.240Z,100132.57
2022-11-15T21:26:59.346Z,100132.86
2022-11-15T21:29:28.703Z,100132.70
2022-11-15T21:31:56.887Z,100133.02
2022-11-15T21:34:24.673Z,100132.30
2022-11-15T21:36:52.468Z,100131.09
2022-11-15T21:39:20.264Z,100127.98
2022-11-15T21:41:48.547Z,100124.86
2022-11-15T21:44:16.621Z,100122.27
2022-11-15T21:46:44.436Z,100123.04
2022-11-15T21:49:12.339Z,100121.17
2022-11-15T21:51:40.238Z,100124.01
2022-11-15T21:54:08.275Z,100121.97
2022-11-15T21:56:36.352Z,100120.95
2022-11-15T21:59:04.152Z,100118.09
2022-11-15T22:01:50.355Z,100111.86
2022-11-15T22:04:18.274Z,100111.19
2022-11-15T22:06:46.158Z,100111.00
2022-11-15T22:09:13.972Z,100114.54
2022-11-15T22:11:42.078Z,100113.04
2022-11-15T22:14:10.360Z,100103.21
2022-11-15T22:16:38.222Z,100097.32
2022-11-15T22:19:06.225Z,100090.04
2022-11-15T22:21:34.320Z,100085.08
2022-11-15T22:24:02.348Z,100086.76
2022-11-15T22:26:30.301Z,100082.08
2022-11-15T22:28:58.267Z,100069.92
2022-11-15T22:31:26.237Z,100060.12
2022-11-15T22:33:54.202Z,100059.73
2022-11-15T22:36:22.170Z,100062.76
2022-11-15T22:38:50.155Z,100064.27
2022-11-15T22:41:18.108Z,100064.59
2022-11-15T22:43:48.327Z,100064.11
2022-11-15T22:46:16.217Z,100051.25
2022-11-15T22:48:44.160Z,100047.36
2022-11-15T22:51:12.129Z,100045.86
2022-11-15T22:53:40.199Z,100041.69
2022-11-15T22:56:08.473Z,100040.65
2022-11-15T22:58:36.623Z,100045.70
2022-11-15T23:01:06.154Z,100042.66
2022-11-15T23:03:34.376Z,100040.33
2022-11-15T23:06:07.248Z,100034.77
2022-11-15T23:08:35.514Z,100031.89
2022-11-15T23:11:23.933Z,100028.67
2022-11-15T23:13:52.952Z,100029.49
2022-11-15T23:16:26.083Z,100033.40
2022-11-15T23:18:57.565Z,100035.61
2022-11-15T23:21:50.004Z,100029.23
2022-11-15T23:24:18.899Z,100027.44
2022-11-15T23:26:49.423Z,100029.99
2022-11-15T23:29:19.747Z,100029.52
2022-11-15T23:32:06.564Z,100026.80
2022-11-15T23:34:38.055Z,100026.15
2022-11-15T23:37:07.304Z,100026.99
2022-11-15T23:39:35.271Z,100033.39
2022-11-15T23:42:08.813Z,100039.10
2022-11-15T23:44:37.369Z,100038.07
2022-11-15T23:47:05.183Z,100034.19
2022-11-15T23:49:33.082Z,100029.98
2022-11-15T23:52:00.946Z,100024.61
2022-11-15T23:54:29.020Z,100021.58
2022-11-15T23:56:56.984Z,100018.55
2022-11-15T23:59:24.953Z,100017.73
